Terminal Aerodrome Forecast
Issued by NWS Sterling, VA

Home | Current Version | Previous Version | Text Only | Print | Product List | Glossary On
Versions: 1 2 3 4 5 6 7 8 9 10 11 12 13 14 15 16 17 18 19 20 21 22 23 24 25
000
FTUS41 KLWX 260800 AAA
TAFBWI
TAF AMD
KBWI 260853Z 2609/2712 VRB04KT P6SM FEW050 BKN130
     FM261600 22009KT P6SM VCTS BKN050CB BKN130
     FM270000 18004KT P6SM FEW050 SCT130=

USA.gov is the U.S. government's official web portal to all federal, state and local government web resources and services.